Terminal Aerodrome Forecast
Issued by NWS

Home | Current Version | Previous Version | Text Only | Print | Product List | Glossary On
Versions: 1 2 3 4 5 6 7 8 9 10 11 12 13 14 15 16 17 18 19 20 21 22 23 24 25 26 27 28 29 30 31 32 33 34 35 36 37 38 39 40 41 42 43 44 45 46 47 48 49
000
FTAK31 PANC 181456 AAA
TAFACD
TAF AMD
PACD 181456Z 1815/1912 30012G20KT 6SM -SHRA BKN015 OVC035
      TEMPO 1815/1817 SCT015 OVC035
     FM181800 30013G21KT 6SM -SHRA SCT020 OVC035
     FM191000 34018KT 6SM -RA BR BKN015 OVC025=

USA.gov is the U.S. government's official web portal to all federal, state and local government web resources and services.